Time;durP1;ratioP1;P1;durP2;ratioP2;P2;SDS_P1;SDS_P2;PMS_P1;PMS_P2;Temp;Humidity;BMP_temperature;BMP_pressure;BME280_temperature;BME280_humidity;BME280_pressure;Samples;Min_cycle;Max_cycle;Signal;HPM_P1;HPM_P2
2021/05/15 00:01:45;;;;;;;3.20;0.50;;;12.00;99.90;;;;;;5044807;28;20212;-71
2021/05/15 00:04:11;;;;;;;3.20;0.50;;;11.90;99.90;;;;;;5053617;28;20632;-70
2021/05/15 00:06:37;;;;;;;3.30;0.60;;;12.00;99.90;;;;;;5038625;28;20288;-70
2021/05/15 00:09:03;;;;;;;3.50;0.70;;;12.00;99.90;;;;;;5016055;28;20174;-70
2021/05/15 00:11:29;;;;;;;3.33;0.60;;;12.00;99.90;;;;;;5039946;28;20209;-72
2021/05/15 00:13:55;;;;;;;3.37;0.60;;;12.00;99.90;;;;;;5053095;28;20564;-69
2021/05/15 00:16:21;;;;;;;3.40;0.67;;;12.10;99.90;;;;;;5041251;28;20212;-70
2021/05/15 00:18:47;;;;;;;3.50;0.70;;;12.10;99.90;;;;;;5011416;28;20647;-71
2021/05/15 00:21:13;;;;;;;5.45;0.73;;;12.10;99.90;;;;;;5034760;28;20297;-70
2021/05/15 00:23:39;;;;;;;3.22;0.57;;;12.10;99.90;;;;;;5035315;28;20177;-70
2021/05/15 00:26:05;;;;;;;3.80;0.80;;;12.10;99.90;;;;;;5048469;28;20372;-71
2021/05/15 00:28:31;;;;;;;3.40;0.50;;;12.10;99.90;;;;;;5053450;28;20172;-70
2021/05/15 00:30:57;;;;;;;5.10;0.90;;;12.10;99.90;;;;;;5045040;28;20545;-71
2021/05/15 00:33:24;;;;;;;4.93;1.00;;;12.10;99.90;;;;;;5034981;28;20392;-69
2021/05/15 00:35:50;;;;;;;3.30;0.63;;;12.00;99.90;;;;;;5053379;28;20427;-69
2021/05/15 00:38:16;;;;;;;3.70;0.90;;;12.00;99.90;;;;;;5050717;28;20670;-68
2021/05/15 00:40:41;;;;;;;3.20;0.60;;;11.90;99.90;;;;;;5053223;28;20169;-69
2021/05/15 00:43:08;;;;;;;3.60;0.90;;;11.90;99.90;;;;;;5052786;28;20201;-71
2021/05/15 00:45:35;;;;;;;3.50;0.60;;;11.90;99.90;;;;;;5033535;28;20668;-69
2021/05/15 00:48:01;;;;;;;3.72;0.70;;;11.90;99.90;;;;;;5037512;28;20525;-69
2021/05/15 00:50:28;;;;;;;3.57;0.80;;;11.90;99.90;;;;;;5037339;28;20220;-70
2021/05/15 00:52:54;;;;;;;3.25;0.60;;;11.80;99.90;;;;;;5052111;28;20550;-72
2021/05/15 00:55:20;;;;;;;3.50;0.70;;;11.70;99.90;;;;;;5056777;28;20197;-71
2021/05/15 00:57:47;;;;;;;3.40;0.83;;;11.70;99.90;;;;;;5043622;28;20440;-69
2021/05/15 01:00:14;;;;;;;3.30;0.65;;;11.60;99.90;;;;;;5040269;28;20166;-69
2021/05/15 01:02:41;;;;;;;3.15;0.43;;;11.50;99.90;;;;;;5044622;28;20178;-71
2021/05/15 01:05:09;;;;;;;3.70;0.80;;;11.50;99.90;;;;;;5049865;28;20224;-71
2021/05/15 01:07:36;;;;;;;3.50;0.80;;;11.40;99.90;;;;;;5053246;28;20170;-70
2021/05/15 01:10:03;;;;;;;3.30;0.50;;;11.40;99.90;;;;;;5035289;28;20181;-70
2021/05/15 01:12:30;;;;;;;4.18;0.90;;;11.30;99.90;;;;;;5053087;28;20192;-71
2021/05/15 01:14:55;;;;;;;3.85;0.60;;;11.20;99.90;;;;;;5056569;28;20177;-70
2021/05/15 01:17:21;;;;;;;3.80;0.77;;;11.20;99.90;;;;;;5041868;28;20265;-70
2021/05/15 01:19:47;;;;;;;3.40;0.63;;;11.10;99.90;;;;;;5037220;28;20412;-69
2021/05/15 01:22:18;;;;;;;3.40;0.53;;;11.00;99.90;;;;;;5049514;28;20181;-71
2021/05/15 01:24:45;;;;;;;3.70;0.70;;;11.00;99.90;;;;;;5022606;28;20683;-70
2021/05/15 01:27:14;;;;;;;3.30;0.52;;;10.90;99.90;;;;;;5047219;28;20201;-68
2021/05/15 01:29:42;;;;;;;3.50;0.70;;;10.90;99.90;;;;;;5056559;28;20162;-69
2021/05/15 01:32:08;;;;;;;3.30;0.60;;;10.90;99.90;;;;;;5044283;28;20647;-69
2021/05/15 01:34:33;;;;;;;3.60;0.70;;;10.80;99.90;;;;;;5036171;28;20189;-69
2021/05/15 01:36:59;;;;;;;3.40;0.60;;;10.70;99.90;;;;;;5048041;28;20183;-69
2021/05/15 01:39:25;;;;;;;3.93;0.60;;;10.60;99.90;;;;;;5042336;28;20678;-69
2021/05/15 01:41:51;;;;;;;3.40;0.50;;;10.50;99.90;;;;;;5057018;28;20169;-70
2021/05/15 01:44:17;;;;;;;3.50;0.63;;;10.50;99.90;;;;;;5056545;28;20185;-70
2021/05/15 01:46:43;;;;;;;3.72;0.52;;;10.40;99.90;;;;;;5038508;28;20287;-69
2021/05/15 01:49:09;;;;;;;3.60;0.60;;;10.40;99.90;;;;;;5056455;28;20188;-70
2021/05/15 01:51:35;;;;;;;3.70;0.60;;;10.40;99.90;;;;;;5055821;28;20169;-69
2021/05/15 01:54:01;;;;;;;3.47;0.50;;;10.30;99.90;;;;;;5046852;28;20886;-70
2021/05/15 01:56:28;;;;;;;4.10;0.90;;;10.30;99.90;;;;;;5020004;28;20175;-70
2021/05/15 01:58:55;;;;;;;3.53;0.65;;;10.30;99.90;;;;;;5025312;28;20165;-69
2021/05/15 02:01:22;;;;;;;3.80;0.70;;;10.30;99.90;;;;;;5056097;28;20643;-69
2021/05/15 02:03:49;;;;;;;4.40;0.88;;;10.30;99.90;;;;;;5051337;28;20186;-70
2021/05/15 02:06:15;;;;;;;3.50;0.60;;;10.30;99.90;;;;;;5035827;28;20279;-70
2021/05/15 02:08:42;;;;;;;3.50;0.60;;;10.30;99.90;;;;;;5033615;28;20209;-70
2021/05/15 02:11:12;;;;;;;3.80;0.70;;;10.30;99.90;;;;;;5016331;28;20416;-69
2021/05/15 02:13:37;;;;;;;3.97;0.70;;;10.30;99.90;;;;;;5020312;28;20225;-69
2021/05/15 02:16:05;;;;;;;3.40;0.50;;;10.40;99.90;;;;;;5055765;28;20196;-70
2021/05/15 02:18:31;;;;;;;3.60;0.88;;;10.40;99.90;;;;;;5035706;28;20228;-70
2021/05/15 02:20:57;;;;;;;3.80;0.95;;;10.40;99.90;;;;;;5055625;28;20173;-70
2021/05/15 02:23:24;;;;;;;4.53;0.83;;;10.40;99.90;;;;;;5055199;28;20170;-70
2021/05/15 02:25:52;;;;;;;10.63;0.82;;;10.40;99.90;;;;;;5035679;28;20451;-71
2021/05/15 02:28:18;;;;;;;3.67;0.68;;;10.40;99.90;;;;;;5035772;28;20194;-69
2021/05/15 02:30:44;;;;;;;4.33;1.07;;;10.30;99.90;;;;;;5035890;28;20575;-70
2021/05/15 02:33:11;;;;;;;4.07;0.95;;;10.20;99.90;;;;;;5034704;28;20178;-69
2021/05/15 02:35:37;;;;;;;4.18;0.60;;;10.20;99.90;;;;;;5033583;28;20229;-69
2021/05/15 02:38:04;;;;;;;3.50;0.55;;;10.20;99.90;;;;;;5055333;28;20165;-68
2021/05/15 02:40:30;;;;;;;3.60;0.70;;;10.10;99.90;;;;;;5040156;28;20178;-70
2021/05/15 02:42:56;;;;;;;3.40;0.47;;;10.10;99.90;;;;;;5035427;28;20169;-71
2021/05/15 02:45:24;;;;;;;3.40;0.50;;;10.10;99.90;;;;;;5048554;28;20796;-70
2021/05/15 02:47:52;;;;;;;4.80;0.80;;;10.10;99.90;;;;;;5048821;28;20169;-70
2021/05/15 02:50:18;;;;;;;3.60;0.80;;;10.10;99.90;;;;;;5055463;28;20165;-69
2021/05/15 02:52:44;;;;;;;3.53;0.67;;;10.10;99.90;;;;;;5043267;28;20197;-71
2021/05/15 02:55:12;;;;;;;3.80;0.70;;;10.00;99.90;;;;;;5031235;28;20432;-72
2021/05/15 02:57:41;;;;;;;4.05;0.85;;;10.10;99.90;;;;;;5044812;28;20205;-69
2021/05/15 03:00:09;;;;;;;3.60;0.60;;;10.00;99.90;;;;;;5055037;28;20218;-69
2021/05/15 03:02:35;;;;;;;3.80;0.77;;;10.00;99.90;;;;;;5044703;28;20257;-71
2021/05/15 03:05:05;;;;;;;4.10;0.90;;;10.00;99.90;;;;;;5034514;28;20283;-71
2021/05/15 03:07:30;;;;;;;3.60;0.70;;;10.00;99.90;;;;;;5043063;28;20459;-70
2021/05/15 03:09:56;;;;;;;4.17;0.57;;;10.00;99.90;;;;;;5045873;28;20180;-70
2021/05/15 03:12:22;;;;;;;4.77;1.03;;;9.90;99.90;;;;;;5039916;28;20425;-70
2021/05/15 03:14:48;;;;;;;3.40;0.50;;;9.90;99.90;;;;;;5054240;28;20533;-71
2021/05/15 03:17:13;;;;;;;4.20;0.90;;;9.90;99.90;;;;;;5037663;28;20595;-69
2021/05/15 03:19:39;;;;;;;5.00;0.70;;;9.80;99.90;;;;;;5034474;28;20174;-71
2021/05/15 03:22:05;;;;;;;5.00;0.90;;;9.80;99.90;;;;;;5049347;28;20179;-70
2021/05/15 03:24:31;;;;;;;5.17;2.10;;;9.80;99.90;;;;;;5046820;28;20687;-69
2021/05/15 03:26:58;;;;;;;3.47;0.50;;;9.80;99.90;;;;;;5047370;28;20197;-71
2021/05/15 03:29:27;;;;;;;3.78;0.82;;;9.80;99.90;;;;;;5054513;28;20211;-71
2021/05/15 03:31:53;;;;;;;6.20;1.33;;;9.80;99.90;;;;;;5041026;28;20180;-70
2021/05/15 03:34:19;;;;;;;3.70;0.60;;;9.80;99.90;;;;;;5033927;28;20190;-70
2021/05/15 03:36:44;;;;;;;4.90;0.80;;;9.80;99.90;;;;;;5045203;28;20418;-71
2021/05/15 03:39:17;;;;;;;3.90;0.70;;;9.80;99.90;;;;;;5048102;28;20174;-71
2021/05/15 03:41:43;;;;;;;3.90;0.63;;;9.80;99.90;;;;;;5045520;28;20181;-71
2021/05/15 03:44:09;;;;;;;3.80;0.80;;;9.80;99.90;;;;;;5053945;28;20169;-71
2021/05/15 03:46:34;;;;;;;4.17;1.00;;;9.70;99.90;;;;;;5034046;28;20510;-70
2021/05/15 03:49:00;;;;;;;3.70;0.60;;;9.70;99.90;;;;;;5054052;28;20650;-70
2021/05/15 03:51:26;;;;;;;3.80;0.80;;;9.70;99.90;;;;;;5044802;28;20170;-69
2021/05/15 03:53:51;;;;;;;4.00;0.70;;;9.70;99.90;;;;;;5033561;28;20172;-72
2021/05/15 03:56:17;;;;;;;4.30;1.00;;;9.70;99.90;;;;;;5040692;28;20283;-71
2021/05/15 03:58:43;;;;;;;4.00;0.70;;;9.70;99.90;;;;;;5042650;28;20184;-70
2021/05/15 04:01:08;;;;;;;3.77;0.67;;;9.70;99.90;;;;;;5017764;28;20188;-70
2021/05/15 04:03:34;;;;;;;3.70;0.60;;;9.70;99.90;;;;;;5035558;28;20196;-69
2021/05/15 04:05:59;;;;;;;4.40;0.90;;;9.70;99.90;;;;;;5049754;28;20201;-68
2021/05/15 04:08:25;;;;;;;3.90;0.70;;;9.70;99.90;;;;;;5033911;28;20170;-71
2021/05/15 04:10:50;;;;;;;3.70;0.80;;;9.70;99.90;;;;;;5035443;28;20173;-69
2021/05/15 04:13:28;;;;;;;3.80;0.60;;;9.80;99.90;;;;;;5049844;28;20560;-71
2021/05/15 04:16:01;;;;;;;3.80;0.70;;;9.80;99.90;;;;;;5029813;28;20263;-69
2021/05/15 04:18:30;;;;;;;3.67;0.65;;;9.90;99.90;;;;;;5034017;28;20652;-70
2021/05/15 04:20:57;;;;;;;3.75;0.60;;;10.00;99.90;;;;;;5049025;28;20204;-69
2021/05/15 04:23:23;;;;;;;3.90;0.77;;;10.10;99.90;;;;;;5031039;28;20185;-70
2021/05/15 04:25:49;;;;;;;3.60;0.50;;;10.20;99.90;;;;;;5014129;28;20213;-71
2021/05/15 04:28:16;;;;;;;3.67;0.50;;;10.30;99.90;;;;;;5018341;28;20537;-71
2021/05/15 04:30:43;;;;;;;3.95;0.82;;;10.60;99.90;;;;;;5053387;28;20404;-69
2021/05/15 04:33:08;;;;;;;3.80;0.50;;;10.80;99.90;;;;;;5051575;28;20174;-71
2021/05/15 04:35:34;;;;;;;3.67;0.50;;;10.90;99.90;;;;;;5034244;28;20201;-71
2021/05/15 04:38:04;;;;;;;3.70;0.60;;;11.00;99.90;;;;;;5033704;28;20174;-69
2021/05/15 04:40:30;;;;;;;3.90;0.85;;;11.00;99.90;;;;;;5014418;28;20572;-70
2021/05/15 04:42:57;;;;;;;3.53;0.45;;;11.00;99.90;;;;;;5013994;28;20171;-72
2021/05/15 04:45:24;;;;;;;3.80;0.50;;;11.10;99.90;;;;;;5051015;28;20687;-70
2021/05/15 04:47:49;;;;;;;3.70;0.77;;;11.10;99.90;;;;;;5038873;28;20181;-71
2021/05/15 04:50:15;;;;;;;3.60;0.60;;;11.20;99.90;;;;;;5033359;28;20170;-71
2021/05/15 04:52:41;;;;;;;3.70;0.67;;;11.20;99.90;;;;;;5045241;28;20170;-71
2021/05/15 04:55:07;;;;;;;3.63;0.70;;;11.30;99.90;;;;;;5034447;28;20962;-73
2021/05/15 04:57:33;;;;;;;3.80;0.70;;;11.50;99.90;;;;;;5043644;28;20180;-70
2021/05/15 04:59:58;;;;;;;3.80;0.80;;;11.60;99.90;;;;;;5053279;28;20178;-70
2021/05/15 05:02:24;;;;;;;3.90;0.70;;;11.90;99.90;;;;;;5042717;28;20758;-70
2021/05/15 05:04:50;;;;;;;3.70;0.60;;;12.40;99.90;;;;;;5032586;28;20692;-71
2021/05/15 05:07:15;;;;;;;3.90;0.70;;;12.80;99.90;;;;;;5040729;28;20313;-70
2021/05/15 05:09:41;;;;;;;4.53;1.07;;;12.90;99.90;;;;;;5052954;28;20197;-71
2021/05/15 05:12:08;;;;;;;3.77;0.80;;;12.90;99.90;;;;;;5028546;28;20207;-70
2021/05/15 05:14:35;;;;;;;3.72;0.63;;;12.90;99.90;;;;;;5017853;28;20281;-70
2021/05/15 05:17:00;;;;;;;3.70;0.67;;;12.80;99.90;;;;;;5022762;28;20183;-70
2021/05/15 05:19:27;;;;;;;3.70;0.80;;;12.90;99.90;;;;;;5053036;28;20742;-70
2021/05/15 05:21:55;;;;;;;4.00;0.83;;;13.00;99.90;;;;;;5048908;28;20173;-70
2021/05/15 05:24:21;;;;;;;4.07;1.00;;;13.10;99.90;;;;;;5032423;28;20533;-70
2021/05/15 05:26:47;;;;;;;3.80;0.53;;;13.20;99.90;;;;;;5035010;28;20548;-69
2021/05/15 05:29:12;;;;;;;3.53;0.63;;;13.20;99.90;;;;;;5025528;28;20423;-71
2021/05/15 05:31:40;;;;;;;3.50;0.60;;;13.20;99.90;;;;;;5016329;28;20174;-71
2021/05/15 05:34:07;;;;;;;3.70;0.70;;;13.30;99.90;;;;;;5053664;28;20210;-70
2021/05/15 05:36:34;;;;;;;4.10;0.70;;;13.40;99.90;;;;;;5052481;28;20428;-69
2021/05/15 05:39:00;;;;;;;3.80;0.90;;;13.50;99.90;;;;;;5056520;28;20410;-70
2021/05/15 05:41:27;;;;;;;3.50;0.60;;;13.60;99.90;;;;;;5056443;28;20892;-67
2021/05/15 05:43:53;;;;;;;3.50;0.53;;;13.60;99.90;;;;;;5037204;28;20426;-70
2021/05/15 05:46:20;;;;;;;3.50;0.83;;;13.70;99.90;;;;;;5056430;28;20484;-70
2021/05/15 05:48:45;;;;;;;3.90;0.80;;;13.90;99.90;;;;;;5043020;28;20451;-70
2021/05/15 05:51:12;;;;;;;3.50;0.83;;;14.00;99.90;;;;;;5023573;28;20449;-70
2021/05/15 05:53:39;;;;;;;3.80;1.00;;;14.20;99.90;;;;;;5035760;28;20224;-70
2021/05/15 05:56:05;;;;;;;3.83;1.00;;;14.20;99.90;;;;;;5036191;28;20989;-70
2021/05/15 05:58:31;;;;;;;3.20;0.50;;;14.20;99.90;;;;;;5052156;28;20422;-70
2021/05/15 06:00:57;;;;;;;3.87;0.80;;;14.20;99.90;;;;;;5056129;28;20408;-68
2021/05/15 06:03:23;;;;;;;3.40;0.50;;;14.10;99.90;;;;;;5040541;28;20427;-71
2021/05/15 06:05:49;;;;;;;3.90;1.20;;;14.00;99.90;;;;;;5035496;28;20459;-69
2021/05/15 06:08:15;;;;;;;3.47;0.70;;;14.00;99.90;;;;;;5049563;28;20220;-69
2021/05/15 06:10:41;;;;;;;3.50;0.50;;;14.10;99.90;;;;;;5038031;28;20415;-68
2021/05/15 06:13:09;;;;;;;3.60;0.70;;;14.20;99.50;;;;;;5043136;28;20173;-70
2021/05/15 06:15:36;;;;;;;3.50;0.60;;;14.20;99.30;;;;;;5040763;28;20435;-69
2021/05/15 06:18:02;;;;;;;3.17;0.53;;;14.20;99.00;;;;;;5044461;28;20793;-69
2021/05/15 06:20:28;;;;;;;3.20;0.50;;;14.30;98.90;;;;;;5038784;28;20423;-68
2021/05/15 06:22:54;;;;;;;3.43;0.60;;;14.20;99.20;;;;;;5055691;28;20408;-70
2021/05/15 06:25:20;;;;;;;6.80;0.90;;;14.20;99.10;;;;;;5051164;28;20497;-70
2021/05/15 06:27:46;;;;;;;3.80;1.00;;;14.20;98.90;;;;;;5034828;28;20841;-70
2021/05/15 06:30:13;;;;;;;3.37;0.70;;;14.10;99.00;;;;;;5019117;28;21004;-70
2021/05/15 06:32:42;;;;;;;3.90;0.80;;;14.10;99.20;;;;;;5055657;28;20171;-69
2021/05/15 06:35:09;;;;;;;4.70;1.53;;;14.10;99.90;;;;;;5054266;28;20426;-66
2021/05/15 06:37:34;;;;;;;3.93;1.13;;;14.40;99.60;;;;;;5015971;28;20439;-69
2021/05/15 06:40:00;;;;;;;3.50;0.80;;;14.50;99.20;;;;;;5053297;28;20411;-67
2021/05/15 06:42:26;;;;;;;3.80;0.90;;;14.60;98.60;;;;;;5022967;28;20173;-70
2021/05/15 06:44:52;;;;;;;3.63;0.67;;;14.60;98.30;;;;;;5032211;28;20452;-70
2021/05/15 06:47:21;;;;;;;5.10;1.30;;;14.80;98.40;;;;;;5016651;28;20466;-76
2021/05/15 06:49:49;;;;;;;3.13;0.43;;;14.90;97.70;;;;;;5036335;28;20176;-74
2021/05/15 06:52:15;;;;;;;3.20;0.63;;;15.10;98.10;;;;;;5035459;28;20407;-76
2021/05/15 06:54:40;;;;;;;3.40;0.60;;;15.30;97.80;;;;;;4997297;28;20459;-75
2021/05/15 06:57:07;;;;;;;3.30;0.70;;;15.30;97.20;;;;;;5015412;28;20519;-75
2021/05/15 06:59:33;;;;;;;3.20;0.63;;;15.50;97.20;;;;;;5050449;28;20213;-71
2021/05/15 07:01:59;;;;;;;4.03;0.60;;;15.60;97.00;;;;;;5020541;28;20427;-75
2021/05/15 07:04:25;;;;;;;3.70;0.97;;;15.70;97.20;;;;;;5035656;28;20942;-72
2021/05/15 07:06:51;;;;;;;3.77;0.87;;;15.80;98.00;;;;;;5032169;28;20530;-71
2021/05/15 07:09:17;;;;;;;3.23;0.80;;;16.00;97.20;;;;;;5029302;28;20193;-75
2021/05/15 07:11:46;;;;;;;4.63;1.40;;;16.10;96.80;;;;;;5034816;28;20408;-69
2021/05/15 07:14:12;;;;;;;3.70;1.03;;;16.40;96.40;;;;;;5036549;28;20580;-72
2021/05/15 07:16:38;;;;;;;3.10;0.40;;;16.60;96.80;;;;;;5033101;28;20497;-69
2021/05/15 07:19:03;;;;;;;3.83;1.37;;;16.90;95.50;;;;;;5034636;28;20210;-72
2021/05/15 07:21:29;;;;;;;3.70;1.13;;;17.00;95.50;;;;;;5051137;28;20232;-70
2021/05/15 07:23:55;;;;;;;3.40;0.80;;;17.00;94.80;;;;;;5042760;28;20218;-70
2021/05/15 07:26:20;;;;;;;3.97;0.50;;;17.10;94.40;;;;;;5022828;28;20203;-69
2021/05/15 07:28:46;;;;;;;3.60;0.70;;;17.30;94.50;;;;;;5028389;28;20181;-70
2021/05/15 07:31:11;;;;;;;3.20;0.70;;;17.50;94.10;;;;;;5034838;28;20174;-70
2021/05/15 07:33:38;;;;;;;3.10;0.60;;;17.80;93.40;;;;;;5051180;28;20189;-69
2021/05/15 07:36:04;;;;;;;5.10;1.90;;;18.10;92.60;;;;;;5035466;28;20197;-69
2021/05/15 07:38:30;;;;;;;3.00;0.60;;;18.20;91.80;;;;;;5033028;28;20484;-70
2021/05/15 07:40:56;;;;;;;3.10;0.60;;;18.20;91.20;;;;;;5035269;28;20499;-69
2021/05/15 07:43:26;;;;;;;3.00;0.50;;;18.00;91.00;;;;;;5028510;28;20443;-69
2021/05/15 07:45:56;;;;;;;3.10;0.60;;;17.80;91.40;;;;;;5049886;28;20475;-68
2021/05/15 07:48:29;;;;;;;3.50;0.70;;;17.70;91.50;;;;;;5034336;28;20421;-67
2021/05/15 07:50:59;;;;;;;3.40;0.90;;;17.50;91.20;;;;;;5041554;28;20420;-68
2021/05/15 07:53:25;;;;;;;3.40;0.80;;;17.40;92.80;;;;;;5044831;28;20474;-68
2021/05/15 07:55:52;;;;;;;4.07;0.83;;;17.50;92.30;;;;;;5033619;28;20447;-68
2021/05/15 07:58:18;;;;;;;3.07;0.60;;;17.70;92.20;;;;;;5039017;28;20422;-68
2021/05/15 08:00:43;;;;;;;3.27;0.70;;;17.80;91.90;;;;;;5033876;28;20452;-69
2021/05/15 08:03:09;;;;;;;3.20;0.70;;;18.10;91.10;;;;;;5047148;28;20431;-68
2021/05/15 08:05:35;;;;;;;5.97;2.87;;;18.50;91.60;;;;;;5033186;28;20741;-69
2021/05/15 08:08:02;;;;;;;3.07;0.70;;;19.10;90.70;;;;;;5038148;28;20194;-69
2021/05/15 08:10:31;;;;;;;3.10;0.60;;;19.70;90.10;;;;;;5053020;28;20179;-67
2021/05/15 08:12:58;;;;;;;5.80;1.20;;;20.20;87.30;;;;;;5039161;28;20515;-67
2021/05/15 08:15:24;;;;;;;3.40;0.67;;;20.60;86.60;;;;;;5032848;28;20942;-67
2021/05/15 08:17:51;;;;;;;3.90;0.80;;;20.80;85.50;;;;;;5029398;28;20425;-68
2021/05/15 08:20:17;;;;;;;3.50;0.90;;;20.70;83.30;;;;;;5033491;28;20411;-68
2021/05/15 08:22:42;;;;;;;3.20;0.90;;;20.40;83.30;;;;;;5033449;28;20752;-68
2021/05/15 08:25:10;;;;;;;3.13;0.87;;;20.10;83.20;;;;;;5033406;28;20457;-69
2021/05/15 08:27:38;;;;;;;3.30;0.80;;;20.00;84.40;;;;;;5040443;28;20293;-67
2021/05/15 08:30:06;;;;;;;3.27;0.80;;;19.80;84.50;;;;;;5044364;28;20420;-68
2021/05/15 08:32:33;;;;;;;2.90;0.53;;;19.60;85.00;;;;;;5036855;28;20424;-67
2021/05/15 08:34:59;;;;;;;2.90;0.50;;;19.30;85.00;;;;;;5032815;28;20528;-68
2021/05/15 08:37:25;;;;;;;2.80;0.60;;;18.90;86.80;;;;;;5033219;28;21005;-69
2021/05/15 08:39:51;;;;;;;3.63;0.70;;;18.90;86.80;;;;;;5033145;28;20503;-67
2021/05/15 08:42:19;;;;;;;3.40;0.70;;;18.90;86.30;;;;;;5037281;28;20181;-68
2021/05/15 08:44:47;;;;;;;2.80;0.50;;;18.90;86.70;;;;;;5052577;28;20549;-68
2021/05/15 08:47:16;;;;;;;3.00;0.70;;;18.90;86.30;;;;;;5033168;28;20465;-71
2021/05/15 08:49:45;;;;;;;2.90;0.70;;;18.80;85.90;;;;;;5053296;28;20906;-69
2021/05/15 08:52:12;;;;;;;2.80;0.50;;;18.70;86.30;;;;;;5040672;28;20510;-69
2021/05/15 08:54:38;;;;;;;3.53;0.80;;;18.90;87.90;;;;;;5029862;28;20483;-70
2021/05/15 08:57:04;;;;;;;2.90;0.50;;;19.60;86.80;;;;;;5034718;28;20425;-70
2021/05/15 08:59:30;;;;;;;2.80;0.60;;;20.40;85.90;;;;;;5053120;28;20418;-68
2021/05/15 09:01:56;;;;;;;3.13;0.57;;;20.80;83.10;;;;;;5043152;28;20433;-69
2021/05/15 09:04:26;;;;;;;2.77;0.57;;;21.00;80.90;;;;;;5033410;28;20444;-69
2021/05/15 09:06:52;;;;;;;2.70;0.50;;;20.90;79.90;;;;;;5043884;28;20462;-69
2021/05/15 09:09:17;;;;;;;3.40;0.70;;;20.60;80.00;;;;;;5034528;28;20418;-68
2021/05/15 09:11:43;;;;;;;2.60;0.50;;;20.10;79.80;;;;;;5040771;28;20191;-67
2021/05/15 09:14:17;;;;;;;2.80;0.70;;;19.70;82.50;;;;;;5056502;28;20638;-68
2021/05/15 09:16:51;;;;;;;2.90;0.60;;;19.20;81.60;;;;;;5052134;28;20188;-67
2021/05/15 09:19:25;;;;;;;2.60;0.47;;;18.60;83.30;;;;;;5056936;28;20487;-68
2021/05/15 09:22:02;;;;;;;2.90;0.80;;;18.40;84.40;;;;;;5048974;28;20419;-67
2021/05/15 09:24:33;;;;;;;4.00;1.23;;;18.40;85.50;;;;;;5036388;28;20497;-66
2021/05/15 09:27:01;;;;;;;3.93;1.47;;;18.40;83.90;;;;;;5044266;28;20455;-70
2021/05/15 09:29:27;;;;;;;3.17;0.90;;;18.50;84.80;;;;;;5056832;28;20808;-70
2021/05/15 09:31:53;;;;;;;3.00;0.83;;;18.50;85.30;;;;;;5049791;28;20988;-70
2021/05/15 09:34:21;;;;;;;3.27;0.60;;;18.60;85.00;;;;;;5036332;28;20433;-71
2021/05/15 09:36:47;;;;;;;2.70;0.60;;;18.70;84.50;;;;;;5041479;28;20582;-70
2021/05/15 09:39:14;;;;;;;3.37;0.80;;;18.70;84.50;;;;;;5044083;28;20431;-71
2021/05/15 09:41:51;;;;;;;2.67;0.57;;;18.90;83.80;;;;;;5027654;28;20431;-72
2021/05/15 09:44:19;;;;;;;3.67;0.70;;;19.00;84.10;;;;;;5037237;28;20513;-71
2021/05/15 09:46:46;;;;;;;3.23;0.73;;;19.50;84.90;;;;;;5050084;28;20798;-72
2021/05/15 09:49:14;;;;;;;4.40;1.00;;;20.70;85.80;;;;;;5049644;28;20427;-67
2021/05/15 09:51:53;;;;;;;2.73;0.70;;;22.10;82.10;;;;;;5053005;28;20419;-73
2021/05/15 09:54:20;;;;;;;2.63;0.70;;;23.30;77.00;;;;;;5053219;28;20414;-67
2021/05/15 09:57:00;;;;;;;2.90;0.50;;;24.20;72.90;;;;;;5038212;28;20424;-69
2021/05/15 09:59:31;;;;;;;3.80;0.83;;;24.40;70.20;;;;;;5039932;28;20420;-68
2021/05/15 10:02:03;;;;;;;3.00;0.90;;;24.00;69.70;;;;;;5039919;28;20420;-73
2021/05/15 10:04:29;;;;;;;2.80;0.60;;;23.40;68.10;;;;;;5053731;28;20447;-69
2021/05/15 10:06:56;;;;;;;2.80;0.70;;;23.30;69.90;;;;;;5052509;28;20541;-70
2021/05/15 10:09:31;;;;;;;2.80;0.80;;;22.70;69.90;;;;;;5055521;28;20419;-68
2021/05/15 10:11:58;;;;;;;2.80;0.60;;;22.50;69.90;;;;;;5052512;28;20523;-70
2021/05/15 10:14:25;;;;;;;4.03;0.80;;;22.20;69.90;;;;;;5017578;28;20483;-68
2021/05/15 10:16:51;;;;;;;3.00;0.80;;;21.90;70.30;;;;;;5037878;28;20497;-68
2021/05/15 10:19:17;;;;;;;2.80;0.60;;;21.50;71.10;;;;;;5055404;28;20383;-67
2021/05/15 10:21:44;;;;;;;3.30;0.80;;;21.20;72.10;;;;;;5054809;28;20414;-72
2021/05/15 10:24:20;;;;;;;3.00;0.80;;;20.70;73.40;;;;;;5044179;28;20554;-70
2021/05/15 10:27:05;;;;;;;4.57;0.90;;;20.40;75.70;;;;;;5054690;28;20520;-70
2021/05/15 10:29:47;;;;;;;4.90;1.10;;;20.00;75.50;;;;;;5035635;28;20466;-68
2021/05/15 10:32:22;;;;;;;3.10;0.83;;;19.50;76.30;;;;;;5038915;28;20423;-70
2021/05/15 10:34:59;;;;;;;4.50;0.93;;;19.10;77.10;;;;;;5054900;28;20932;-70
2021/05/15 10:37:24;;;;;;;3.20;0.70;;;18.80;79.00;;;;;;5049573;28;20424;-70
2021/05/15 10:39:50;;;;;;;3.03;0.83;;;18.50;81.70;;;;;;5035499;28;20906;-72
2021/05/15 10:42:33;;;;;;;3.47;0.90;;;18.30;83.60;;;;;;5036472;28;20189;-71
2021/05/15 10:45:01;;;;;;;3.00;0.70;;;18.20;84.10;;;;;;5034824;28;20436;-71
2021/05/15 10:47:27;;;;;;;3.20;0.83;;;18.20;85.60;;;;;;5016272;28;20861;-70
2021/05/15 10:50:16;;;;;;;3.30;0.80;;;18.20;86.30;;;;;;5035956;28;20420;-71
2021/05/15 10:52:45;;;;;;;3.93;0.90;;;18.40;86.10;;;;;;5015390;28;20434;-72
2021/05/15 10:55:11;;;;;;;3.00;0.60;;;18.50;86.20;;;;;;5039627;28;20459;-72
2021/05/15 10:57:37;;;;;;;3.20;0.80;;;18.70;85.80;;;;;;5054249;28;20461;-72
2021/05/15 11:00:09;;;;;;;3.13;0.73;;;18.90;87.50;;;;;;5052905;28;20502;-72
2021/05/15 11:02:39;;;;;;;3.00;0.60;;;19.70;88.00;;;;;;5054917;28;20515;-69
2021/05/15 11:05:14;;;;;;;4.40;0.70;;;20.80;82.20;;;;;;5039635;28;20441;-70
2021/05/15 11:07:40;;;;;;;3.00;0.70;;;21.70;77.00;;;;;;5015783;28;20453;-69
2021/05/15 11:10:18;;;;;;;3.30;1.00;;;22.00;73.80;;;;;;5037346;28;20416;-68
2021/05/15 11:12:46;;;;;;;3.00;0.70;;;21.80;73.30;;;;;;5053830;28;20427;-66
2021/05/15 11:15:17;;;;;;;5.43;0.90;;;21.60;72.70;;;;;;5037331;28;20441;-67
2021/05/15 11:17:44;;;;;;;3.00;0.73;;;21.20;74.30;;;;;;5040445;28;20423;-68
2021/05/15 11:20:18;;;;;;;2.90;0.70;;;20.70;75.30;;;;;;5044626;28;20426;-68
2021/05/15 11:22:52;;;;;;;3.50;0.83;;;20.40;82.50;;;;;;5014582;28;20470;-68
2021/05/15 11:25:20;;;;;;;3.00;0.70;;;20.10;84.60;;;;;;5037055;28;20457;-69
2021/05/15 11:27:56;;;;;;;4.70;1.03;;;20.00;87.40;;;;;;5054054;28;20489;-68
2021/05/15 11:30:31;;;;;;;3.00;0.57;;;19.90;86.50;;;;;;5042135;28;20421;-69
2021/05/15 11:32:59;;;;;;;3.10;0.80;;;19.80;83.00;;;;;;5033448;28;20465;-69
2021/05/15 11:35:26;;;;;;;3.00;0.80;;;19.70;81.50;;;;;;5033400;28;20529;-67
2021/05/15 11:38:10;;;;;;;2.90;0.60;;;19.40;80.30;;;;;;5033641;28;20835;-68
2021/05/15 11:40:40;;;;;;;2.93;0.70;;;19.30;81.20;;;;;;5034919;28;20958;-67
2021/05/15 11:43:07;;;;;;;2.97;0.70;;;19.20;81.30;;;;;;5033635;28;20401;-67
2021/05/15 11:45:34;;;;;;;3.13;0.80;;;19.10;79.90;;;;;;5034190;28;21021;-68
2021/05/15 11:48:22;;;;;;;3.10;0.70;;;19.00;79.30;;;;;;5034004;28;20980;-69
2021/05/15 11:51:09;;;;;;;5.00;1.00;;;19.00;78.00;;;;;;5047597;28;20820;-67
2021/05/15 11:53:40;;;;;;;2.93;0.60;;;18.90;75.80;;;;;;5053338;28;20433;-67
2021/05/15 11:56:26;;;;;;;4.13;1.10;;;18.80;73.90;;;;;;5053036;28;20473;-67
2021/05/15 11:58:57;;;;;;;2.90;0.60;;;18.70;74.30;;;;;;5035876;28;20768;-69
2021/05/15 12:01:29;;;;;;;3.87;0.90;;;18.80;74.40;;;;;;5041646;28;20435;-67
2021/05/15 12:04:16;;;;;;;3.80;0.80;;;19.00;75.80;;;;;;5053112;28;20507;-67
2021/05/15 12:06:43;;;;;;;2.90;0.60;;;19.20;73.00;;;;;;5033531;28;20519;-68
2021/05/15 12:09:16;;;;;;;3.40;0.80;;;19.50;75.70;;;;;;5033579;28;20413;-69
2021/05/15 12:11:43;;;;;;;3.10;0.70;;;19.80;72.90;;;;;;5052039;28;20516;-69
2021/05/15 12:14:11;;;;;;;2.97;0.63;;;20.10;72.70;;;;;;5052833;28;20407;-67
2021/05/15 12:16:38;;;;;;;3.20;0.80;;;20.30;70.90;;;;;;5035067;28;20439;-66
2021/05/15 12:19:16;;;;;;;2.90;0.50;;;20.30;69.70;;;;;;5033741;28;20417;-67
2021/05/15 12:21:42;;;;;;;2.80;0.60;;;20.40;69.80;;;;;;5051857;28;20428;-69
2021/05/15 12:24:08;;;;;;;4.20;0.87;;;20.40;70.30;;;;;;5040160;28;20433;-69
2021/05/15 12:26:34;;;;;;;4.07;0.80;;;20.30;68.80;;;;;;5033175;28;20625;-69
2021/05/15 12:29:02;;;;;;;3.20;0.93;;;20.20;70.80;;;;;;5043960;28;20447;-68
2021/05/15 12:31:33;;;;;;;3.30;0.97;;;20.10;70.60;;;;;;5053220;28;20201;-68
2021/05/15 12:34:00;;;;;;;3.10;0.60;;;20.10;69.80;;;;;;5024503;28;20455;-67
2021/05/15 12:36:32;;;;;;;2.87;0.60;;;20.20;70.70;;;;;;5033397;28;20463;-68
2021/05/15 12:38:58;;;;;;;3.23;0.93;;;20.10;71.60;;;;;;5043480;28;20447;-67
2021/05/15 12:41:32;;;;;;;2.70;0.50;;;20.10;70.70;;;;;;5053354;28;20910;-68
2021/05/15 12:44:08;;;;;;;4.30;0.70;;;20.10;70.80;;;;;;5042005;28;20548;-68
2021/05/15 12:46:36;;;;;;;2.90;0.60;;;20.10;70.40;;;;;;5033078;28;20490;-67
2021/05/15 12:49:05;;;;;;;5.33;0.97;;;19.90;68.60;;;;;;5042508;28;20435;-68
2021/05/15 12:51:34;;;;;;;2.80;0.60;;;19.80;68.80;;;;;;5052926;28;20455;-67